Time;durP1;ratioP1;P1;durP2;ratioP2;P2;SDS_P1;SDS_P2;PMS_P1;PMS_P2;Temp;Humidity;BMP_temperature;BMP_pressure;BME280_temperature;BME280_humidity;BME280_pressure;Samples;Min_cycle;Max_cycle;Signal;HPM_P1;HPM_P2
2023/06/09 00:01:44;;;;;;;5.22;3.97;;;19.70;97.70;;;;;;5096340;28;20059;-69
2023/06/09 00:04:13;;;;;;;8.25;4.05;;;19.70;97.70;;;;;;5114762;28;20016;-69
2023/06/09 00:06:39;;;;;;;8.70;4.38;;;19.70;97.70;;;;;;5114618;28;20106;-69
2023/06/09 00:09:06;;;;;;;12.13;3.95;;;19.60;97.80;;;;;;5114603;28;20132;-69
2023/06/09 00:11:32;;;;;;;6.55;4.15;;;19.60;97.90;;;;;;5114137;28;20074;-69
2023/06/09 00:13:58;;;;;;;4.80;3.78;;;19.60;98.00;;;;;;5114501;28;20023;-69
2023/06/09 00:16:25;;;;;;;10.77;4.07;;;19.60;97.90;;;;;;5114393;28;20032;-69
2023/06/09 00:18:51;;;;;;;8.05;3.92;;;19.60;97.90;;;;;;5114333;28;20537;-69
2023/06/09 00:21:21;;;;;;;9.35;4.30;;;19.60;97.80;;;;;;5095778;28;20382;-69
2023/06/09 00:23:48;;;;;;;8.55;3.30;;;19.60;97.80;;;;;;5114139;28;20027;-69
2023/06/09 00:26:15;;;;;;;8.77;3.70;;;19.50;97.80;;;;;;5114093;28;20532;-69
2023/06/09 00:28:43;;;;;;;7.55;3.65;;;19.50;97.70;;;;;;5114237;28;20051;-69
2023/06/09 00:31:08;;;;;;;5.60;4.18;;;19.50;97.50;;;;;;5113955;28;20107;-69
2023/06/09 00:33:34;;;;;;;7.75;3.90;;;19.40;97.50;;;;;;5114057;28;20070;-69
2023/06/09 00:36:00;;;;;;;8.70;3.53;;;19.40;97.70;;;;;;5113926;28;20097;-69
2023/06/09 00:38:26;;;;;;;11.48;4.20;;;19.40;97.80;;;;;;5113674;28;20059;-69
2023/06/09 00:40:52;;;;;;;8.10;4.15;;;19.40;97.70;;;;;;5113722;28;20027;-69
2023/06/09 00:43:17;;;;;;;5.80;3.35;;;19.40;97.80;;;;;;5113982;28;20024;-69
2023/06/09 00:45:43;;;;;;;8.50;3.90;;;19.40;97.70;;;;;;5113348;28;20103;-70
2023/06/09 00:48:09;;;;;;;7.10;3.90;;;19.30;97.70;;;;;;5113521;28;20076;-69
2023/06/09 00:50:36;;;;;;;6.82;4.00;;;19.30;97.80;;;;;;5113767;28;20026;-69
2023/06/09 00:53:02;;;;;;;8.35;4.28;;;19.30;97.90;;;;;;5113502;28;20107;-69
2023/06/09 00:55:28;;;;;;;6.15;4.25;;;19.30;98.10;;;;;;5095285;28;20020;-70
2023/06/09 00:57:55;;;;;;;8.15;3.95;;;19.30;98.20;;;;;;5112347;28;20108;-70
2023/06/09 01:00:29;;;;;;;11.48;4.28;;;19.30;98.30;;;;;;5110880;28;20373;-70
2023/06/09 01:03:02;;;;;;;8.07;3.97;;;19.30;98.20;;;;;;5110637;28;20477;-69
2023/06/09 01:05:32;;;;;;;11.02;3.97;;;19.30;98.20;;;;;;5112611;28;20403;-70
2023/06/09 01:08:05;;;;;;;10.93;4.80;;;19.20;98.30;;;;;;5112937;28;20024;-69
2023/06/09 01:10:37;;;;;;;9.88;4.07;;;19.20;98.30;;;;;;5113066;28;20072;-69
2023/06/09 01:13:28;;;;;;;8.27;4.32;;;19.20;98.30;;;;;;5113195;28;20024;-69
2023/06/09 01:16:03;;;;;;;8.35;4.28;;;19.20;98.40;;;;;;5094915;28;20043;-69
2023/06/09 01:18:30;;;;;;;6.82;3.88;;;19.20;98.40;;;;;;5112519;28;20043;-69
2023/06/09 01:21:06;;;;;;;10.75;4.43;;;19.20;98.40;;;;;;5112705;28;20365;-69
2023/06/09 01:23:47;;;;;;;8.43;4.53;;;19.20;98.40;;;;;;5113021;28;20034;-69
2023/06/09 01:26:15;;;;;;;10.95;4.03;;;19.20;98.30;;;;;;5112931;28;20020;-70
2023/06/09 01:28:43;;;;;;;8.38;3.83;;;19.20;98.30;;;;;;5112537;28;20028;-70
2023/06/09 01:31:11;;;;;;;6.68;3.88;;;19.10;98.30;;;;;;5113012;28;20043;-69
2023/06/09 01:33:37;;;;;;;6.35;3.75;;;19.20;98.30;;;;;;5113246;28;20379;-69
2023/06/09 01:36:05;;;;;;;8.23;4.20;;;19.10;98.30;;;;;;5112851;28;20024;-69
2023/06/09 01:38:31;;;;;;;6.85;4.07;;;19.10;98.30;;;;;;5112493;28;20078;-69
2023/06/09 01:40:57;;;;;;;8.30;3.85;;;19.10;98.30;;;;;;5112820;28;20028;-69
2023/06/09 01:43:22;;;;;;;12.02;4.28;;;19.10;98.30;;;;;;5112636;28;20035;-69
2023/06/09 01:45:48;;;;;;;7.72;3.70;;;19.10;98.20;;;;;;5112863;28;20026;-69
2023/06/09 01:48:29;;;;;;;10.43;4.40;;;19.10;98.10;;;;;;5113077;28;20024;-69
2023/06/09 01:51:08;;;;;;;5.63;3.70;;;19.10;98.00;;;;;;5113086;28;20500;-69
2023/06/09 01:53:41;;;;;;;9.88;3.70;;;19.10;98.00;;;;;;5112589;28;20028;-69
2023/06/09 01:56:26;;;;;;;10.02;3.60;;;19.10;98.20;;;;;;5112698;28;20028;-70
2023/06/09 01:58:55;;;;;;;5.28;3.75;;;19.00;97.90;;;;;;5113931;28;20042;-69
2023/06/09 02:01:23;;;;;;;4.20;3.70;;;19.00;98.00;;;;;;5116782;28;20020;-69
2023/06/09 02:03:52;;;;;;;4.50;3.63;;;19.00;97.90;;;;;;5116982;28;20070;-69
2023/06/09 02:06:19;;;;;;;6.20;3.67;;;19.00;97.90;;;;;;5116739;28;20020;-69
2023/06/09 02:08:45;;;;;;;12.25;3.85;;;18.90;97.90;;;;;;5116944;28;20023;-69
2023/06/09 02:11:11;;;;;;;7.82;3.47;;;18.90;97.90;;;;;;5116864;28;20027;-69
2023/06/09 02:13:37;;;;;;;5.10;3.25;;;18.90;97.90;;;;;;5116530;28;20141;-69
2023/06/09 02:16:03;;;;;;;8.32;3.88;;;18.90;97.90;;;;;;5116547;28;20093;-69
2023/06/09 02:18:29;;;;;;;7.95;4.10;;;18.90;97.90;;;;;;5116832;28;20031;-69
2023/06/09 02:20:54;;;;;;;7.45;3.78;;;18.90;97.90;;;;;;5116749;28;20023;-70
2023/06/09 02:23:21;;;;;;;7.72;3.80;;;18.90;97.70;;;;;;5116933;28;20155;-69
2023/06/09 02:25:47;;;;;;;10.93;4.03;;;18.90;97.70;;;;;;5116697;28;20016;-69
2023/06/09 02:28:14;;;;;;;9.02;3.92;;;18.80;97.70;;;;;;5116669;28;20051;-68
2023/06/09 02:30:39;;;;;;;9.30;4.38;;;18.80;97.70;;;;;;5116643;28;20035;-69
2023/06/09 02:33:06;;;;;;;6.75;4.10;;;18.80;97.80;;;;;;5116165;28;20023;-69
2023/06/09 02:35:32;;;;;;;9.98;3.85;;;18.70;97.70;;;;;;5116007;28;20020;-69
2023/06/09 02:37:58;;;;;;;7.30;3.80;;;18.70;97.70;;;;;;5115730;28;20051;-70
2023/06/09 02:40:27;;;;;;;8.20;3.72;;;18.70;97.70;;;;;;5116347;28;20024;-69
2023/06/09 02:42:53;;;;;;;4.93;3.78;;;18.70;97.80;;;;;;5115792;28;20051;-69
2023/06/09 02:45:19;;;;;;;7.85;4.03;;;18.70;97.80;;;;;;5115616;28;20046;-70
2023/06/09 02:47:45;;;;;;;6.53;4.60;;;18.70;97.80;;;;;;5115690;28;20425;-69
2023/06/09 02:50:10;;;;;;;6.55;4.20;;;18.70;97.80;;;;;;5115527;28;20023;-69
2023/06/09 02:52:36;;;;;;;9.65;3.85;;;18.70;97.80;;;;;;5097348;28;20032;-69
2023/06/09 02:55:03;;;;;;;5.93;3.80;;;18.60;97.80;;;;;;5115837;28;20012;-69
2023/06/09 02:57:29;;;;;;;6.45;3.63;;;18.70;97.80;;;;;;5115599;28;20493;-70
2023/06/09 02:59:55;;;;;;;7.63;4.07;;;18.60;97.80;;;;;;5116013;28;20102;-69
2023/06/09 03:02:21;;;;;;;6.70;4.18;;;18.60;97.80;;;;;;5115754;28;20161;-69
2023/06/09 03:04:47;;;;;;;9.32;4.30;;;18.60;97.80;;;;;;5115791;28;20024;-69
2023/06/09 03:07:16;;;;;;;8.45;3.97;;;18.60;97.90;;;;;;5115945;28;20104;-69
2023/06/09 03:09:42;;;;;;;14.55;3.90;;;18.60;97.90;;;;;;5115508;28;20027;-69
2023/06/09 03:12:08;;;;;;;7.47;4.10;;;18.60;97.80;;;;;;5115598;28;20024;-69
2023/06/09 03:14:34;;;;;;;8.13;4.10;;;18.60;97.80;;;;;;5115801;28;20102;-69
2023/06/09 03:17:00;;;;;;;8.43;3.72;;;18.60;97.80;;;;;;5115411;28;20550;-69
2023/06/09 03:19:27;;;;;;;7.75;3.83;;;18.60;97.80;;;;;;5115456;28;20032;-69
2023/06/09 03:21:53;;;;;;;7.80;3.80;;;18.60;98.00;;;;;;5115616;28;20494;-69
2023/06/09 03:24:19;;;;;;;10.80;4.22;;;18.60;97.80;;;;;;5115486;28;20077;-69
2023/06/09 03:26:48;;;;;;;9.50;4.05;;;18.50;97.80;;;;;;5115449;28;20098;-69
2023/06/09 03:29:14;;;;;;;7.18;4.07;;;18.50;97.90;;;;;;5115464;28;20476;-70
2023/06/09 03:31:40;;;;;;;9.40;4.93;;;18.50;97.90;;;;;;5115012;28;20027;-70
2023/06/09 03:34:06;;;;;;;5.78;4.53;;;18.50;98.00;;;;;;5115227;28;20015;-69
2023/06/09 03:36:33;;;;;;;10.02;4.55;;;18.50;98.00;;;;;;5115070;28;20052;-70
2023/06/09 03:38:59;;;;;;;12.13;4.35;;;18.50;98.00;;;;;;5115058;28;20483;-70
2023/06/09 03:41:25;;;;;;;7.13;4.30;;;18.50;97.90;;;;;;5114999;28;20036;-69
2023/06/09 03:43:51;;;;;;;9.65;4.28;;;18.50;97.90;;;;;;5115247;28;20111;-69
2023/06/09 03:46:17;;;;;;;6.03;4.15;;;18.50;97.90;;;;;;5114987;28;20052;-69
2023/06/09 03:48:43;;;;;;;8.32;4.35;;;18.40;97.60;;;;;;5115235;28;20024;-69
2023/06/09 03:51:08;;;;;;;9.57;4.75;;;18.40;97.70;;;;;;5115039;28;20051;-69
2023/06/09 03:53:34;;;;;;;6.82;4.57;;;18.40;97.80;;;;;;5114957;28;20060;-69
2023/06/09 03:56:00;;;;;;;11.43;4.50;;;18.40;98.00;;;;;;5114957;28;20102;-69
2023/06/09 03:58:26;;;;;;;10.23;4.40;;;18.40;98.00;;;;;;5114631;28;20039;-69
2023/06/09 04:00:52;;;;;;;6.80;4.57;;;18.40;98.20;;;;;;5114640;28;20406;-69
2023/06/09 04:03:20;;;;;;;13.68;4.70;;;18.40;98.10;;;;;;5114727;28;20026;-69
2023/06/09 04:05:47;;;;;;;8.73;4.28;;;18.40;98.10;;;;;;5114879;28;20106;-69
2023/06/09 04:08:13;;;;;;;10.52;4.65;;;18.40;98.10;;;;;;5114787;28;20027;-69
2023/06/09 04:10:40;;;;;;;7.18;4.43;;;18.40;98.10;;;;;;5114542;28;20024;-69
2023/06/09 04:13:07;;;;;;;6.50;4.32;;;18.40;98.20;;;;;;5114266;28;20043;-69
2023/06/09 04:15:33;;;;;;;5.63;3.70;;;18.40;98.30;;;;;;5114065;28;20019;-70
2023/06/09 04:18:01;;;;;;;4.50;3.97;;;18.40;98.20;;;;;;5114236;28;20032;-70
2023/06/09 04:20:27;;;;;;;6.57;3.58;;;18.40;98.50;;;;;;5114186;28;20047;-70
2023/06/09 04:22:53;;;;;;;7.10;3.80;;;18.40;98.50;;;;;;5113347;28;20051;-69
2023/06/09 04:25:28;;;;;;;10.00;4.35;;;18.40;98.40;;;;;;5114246;28;20091;-69
2023/06/09 04:27:55;;;;;;;11.40;4.78;;;18.50;98.40;;;;;;5113925;28;20023;-69
2023/06/09 04:30:25;;;;;;;5.82;4.63;;;18.50;98.30;;;;;;5114153;28;20027;-69
2023/06/09 04:32:54;;;;;;;7.47;4.45;;;18.50;98.20;;;;;;5113977;28;20020;-70
2023/06/09 04:35:23;;;;;;;11.85;5.15;;;18.50;98.20;;;;;;5114177;28;20054;-69
2023/06/09 04:37:50;;;;;;;7.97;4.22;;;18.50;98.50;;;;;;5113575;28;20044;-69
2023/06/09 04:40:23;;;;;;;10.27;4.22;;;18.50;98.50;;;;;;5113730;28;20068;-70
2023/06/09 04:42:57;;;;;;;7.65;4.57;;;18.60;98.50;;;;;;5113997;28;20039;-70
2023/06/09 04:45:27;;;;;;;4.97;4.20;;;18.50;98.40;;;;;;5113908;28;20498;-69
2023/06/09 04:47:57;;;;;;;8.30;4.13;;;18.60;98.40;;;;;;5113773;28;20425;-70
2023/06/09 04:50:23;;;;;;;17.95;4.22;;;18.60;98.40;;;;;;5113682;28;20024;-70
2023/06/09 04:52:49;;;;;;;12.25;4.80;;;18.60;98.30;;;;;;5113352;28;20023;-69
2023/06/09 04:55:15;;;;;;;11.15;4.00;;;18.60;98.50;;;;;;5113042;28;20027;-69
2023/06/09 04:57:40;;;;;;;8.75;4.38;;;18.60;98.50;;;;;;5113398;28;20027;-69
2023/06/09 05:00:12;;;;;;;7.35;4.53;;;18.60;98.50;;;;;;5113546;28;20471;-69
2023/06/09 05:02:39;;;;;;;10.63;4.13;;;18.70;98.50;;;;;;5113557;28;20035;-69
2023/06/09 05:05:05;;;;;;;7.88;4.50;;;18.70;98.50;;;;;;5113270;28;20035;-69
2023/06/09 05:07:31;;;;;;;12.02;4.65;;;18.70;98.50;;;;;;5113362;28;20034;-69
2023/06/09 05:09:56;;;;;;;7.53;3.70;;;18.80;98.50;;;;;;5113356;28;20460;-69
2023/06/09 05:12:22;;;;;;;5.43;4.13;;;18.80;98.40;;;;;;5113346;28;20074;-70
2023/06/09 05:14:48;;;;;;;7.53;4.05;;;18.80;98.30;;;;;;5095300;28;20023;-69
2023/06/09 05:17:13;;;;;;;7.00;3.97;;;18.90;98.30;;;;;;5113321;28;20031;-70
2023/06/09 05:19:39;;;;;;;7.68;3.80;;;18.90;98.20;;;;;;5113319;28;20022;-70
2023/06/09 05:22:05;;;;;;;8.13;3.40;;;18.90;98.30;;;;;;5113057;28;20024;-70
2023/06/09 05:24:30;;;;;;;6.63;3.70;;;18.90;98.30;;;;;;5113222;28;20376;-69
2023/06/09 05:26:56;;;;;;;5.57;3.90;;;19.00;98.30;;;;;;5112939;28;20062;-70
2023/06/09 05:29:21;;;;;;;4.30;3.42;;;19.00;98.30;;;;;;5113154;28;20059;-68
2023/06/09 05:31:47;;;;;;;6.20;2.97;;;19.00;98.30;;;;;;5113361;28;20058;-69
2023/06/09 05:34:13;;;;;;;4.43;3.38;;;19.00;98.30;;;;;;5112710;28;20027;-69
2023/06/09 05:36:38;;;;;;;5.50;3.28;;;19.10;98.20;;;;;;5112354;28;20039;-69
2023/06/09 05:39:04;;;;;;;5.63;3.38;;;19.10;98.10;;;;;;5113018;28;20472;-70
2023/06/09 05:41:30;;;;;;;4.68;3.28;;;19.20;98.00;;;;;;5113073;28;20023;-69
2023/06/09 05:43:57;;;;;;;4.28;3.25;;;19.20;98.00;;;;;;5113076;28;20038;-69
2023/06/09 05:46:24;;;;;;;9.48;4.20;;;19.30;97.60;;;;;;5112677;28;20020;-69
2023/06/09 05:48:50;;;;;;;5.78;3.45;;;19.30;97.50;;;;;;5113108;28;20022;-69
2023/06/09 05:51:17;;;;;;;6.28;3.30;;;19.30;97.50;;;;;;5112738;28;20077;-69
2023/06/09 05:53:43;;;;;;;6.57;3.47;;;19.40;97.50;;;;;;5112661;28;20539;-69
2023/06/09 05:56:09;;;;;;;5.18;3.20;;;19.40;97.50;;;;;;5112858;28;20099;-69
2023/06/09 05:58:36;;;;;;;8.43;3.35;;;19.50;97.40;;;;;;5112734;28;20032;-69
2023/06/09 06:01:03;;;;;;;4.13;3.42;;;19.50;97.20;;;;;;5113108;28;20058;-69
2023/06/09 06:03:29;;;;;;;5.93;4.18;;;19.60;97.20;;;;;;5112206;28;20051;-70
2023/06/09 06:05:54;;;;;;;8.13;3.75;;;19.60;97.20;;;;;;5112185;28;20046;-70
2023/06/09 06:08:20;;;;;;;7.45;3.20;;;19.70;97.20;;;;;;5112649;28;20478;-70
2023/06/09 06:10:46;;;;;;;3.85;3.40;;;19.70;97.00;;;;;;5112801;28;20383;-69
2023/06/09 06:13:13;;;;;;;4.82;3.40;;;19.80;96.70;;;;;;5112877;28;20028;-70
2023/06/09 06:15:39;;;;;;;4.13;3.40;;;19.80;96.60;;;;;;5112323;28;20024;-69
2023/06/09 06:18:04;;;;;;;6.35;3.90;;;19.90;96.40;;;;;;5112252;28;20076;-70
2023/06/09 06:20:30;;;;;;;3.63;3.17;;;19.90;96.40;;;;;;5112459;28;20497;-68
2023/06/09 06:22:57;;;;;;;5.18;3.10;;;19.90;96.30;;;;;;5110831;28;20213;-68
2023/06/09 06:25:23;;;;;;;5.50;3.53;;;20.00;96.10;;;;;;5111758;28;20012;-68
2023/06/09 06:27:49;;;;;;;6.05;3.40;;;20.00;96.20;;;;;;5112222;28;20129;-69
2023/06/09 06:30:15;;;;;;;8.40;3.17;;;20.10;96.10;;;;;;5111556;28;20016;-69
2023/06/09 06:32:51;;;;;;;4.68;3.72;;;20.10;96.10;;;;;;5093512;28;20038;-68
2023/06/09 06:35:28;;;;;;;7.13;3.45;;;20.20;95.80;;;;;;5111580;28;20020;-69
2023/06/09 06:37:55;;;;;;;6.05;3.22;;;20.20;95.70;;;;;;5111552;28;20495;-69
2023/06/09 06:40:21;;;;;;;5.97;3.38;;;20.30;95.80;;;;;;5092245;28;20423;-70
2023/06/09 06:42:47;;;;;;;4.60;3.33;;;20.30;95.40;;;;;;5107507;28;20031;-69
2023/06/09 06:45:13;;;;;;;6.60;3.92;;;20.40;95.70;;;;;;5112364;28;20027;-69
2023/06/09 06:47:43;;;;;;;5.13;3.20;;;20.50;95.80;;;;;;5115378;28;20031;-69
2023/06/09 06:50:09;;;;;;;4.80;3.83;;;20.50;95.30;;;;;;5115913;28;20419;-69
2023/06/09 06:52:36;;;;;;;4.45;3.65;;;20.60;95.40;;;;;;5115859;28;20028;-68
2023/06/09 06:55:02;;;;;;;9.70;3.28;;;20.60;95.40;;;;;;5115449;28;20352;-69
2023/06/09 06:57:27;;;;;;;9.25;3.97;;;20.70;95.20;;;;;;5115369;28;20100;-69
2023/06/09 06:59:53;;;;;;;10.60;3.45;;;20.70;95.20;;;;;;5115562;28;20034;-69
2023/06/09 07:02:19;;;;;;;4.57;3.00;;;20.80;94.80;;;;;;5115533;28;20066;-69
2023/06/09 07:04:44;;;;;;;4.97;3.15;;;20.80;94.60;;;;;;5115275;28;20023;-69
2023/06/09 07:07:10;;;;;;;4.32;3.03;;;20.90;94.60;;;;;;5115183;28;20020;-69
2023/06/09 07:09:37;;;;;;;5.65;3.40;;;20.90;94.70;;;;;;5115575;28;20093;-69
2023/06/09 07:12:02;;;;;;;7.70;3.47;;;21.00;94.80;;;;;;5115803;28;20426;-70
2023/06/09 07:14:29;;;;;;;4.45;3.42;;;21.10;94.60;;;;;;5115187;28;20023;-69
2023/06/09 07:16:55;;;;;;;5.57;3.08;;;21.10;94.40;;;;;;5115042;28;20778;-70
2023/06/09 07:19:21;;;;;;;5.85;3.60;;;21.20;94.20;;;;;;5115066;28;20032;-70
2023/06/09 07:21:46;;;;;;;6.35;3.50;;;21.20;94.10;;;;;;5115182;28;20019;-69
2023/06/09 07:24:12;;;;;;;6.47;3.28;;;21.30;94.00;;;;;;5115398;28;20074;-69
2023/06/09 07:26:38;;;;;;;3.83;3.50;;;21.30;93.90;;;;;;5114934;28;20091;-70
2023/06/09 07:29:04;;;;;;;5.80;3.33;;;21.40;93.80;;;;;;5115115;28;20153;-69
2023/06/09 07:31:30;;;;;;;12.85;3.58;;;21.40;94.20;;;;;;5114800;28;20023;-70
2023/06/09 07:33:56;;;;;;;6.30;3.03;;;21.40;94.30;;;;;;5117853;22;20031;-69
2023/06/09 07:36:22;;;;;;;7.25;3.65;;;21.50;94.20;;;;;;5074170;28;20036;-70
2023/06/09 07:38:47;;;;;;;5.97;3.35;;;21.60;94.40;;;;;;5074297;28;20033;-70
2023/06/09 07:41:13;;;;;;;5.03;3.30;;;21.60;93.90;;;;;;5074469;28;20020;-70
2023/06/09 07:43:39;;;;;;;7.88;3.17;;;21.70;93.50;;;;;;5073455;28;20070;-70
2023/06/09 07:46:05;;;;;;;4.00;3.05;;;21.70;93.30;;;;;;5073736;28;20408;-70
2023/06/09 07:48:31;;;;;;;6.25;3.08;;;21.70;93.00;;;;;;5073942;28;20103;-70
2023/06/09 07:50:57;;;;;;;7.03;3.30;;;21.80;92.70;;;;;;5073733;28;20025;-70
2023/06/09 07:53:23;;;;;;;6.80;3.22;;;21.80;92.60;;;;;;5073944;28;20028;-69
2023/06/09 07:55:49;;;;;;;6.32;3.45;;;21.80;92.40;;;;;;5074376;28;20027;-70
2023/06/09 07:58:14;;;;;;;5.38;3.10;;;21.90;92.60;;;;;;5074709;28;20063;-69
2023/06/09 08:00:41;;;;;;;3.90;3.05;;;22.00;92.50;;;;;;5074183;28;20016;-70
2023/06/09 08:03:07;;;;;;;4.25;3.05;;;22.00;92.50;;;;;;5074512;28;20028;-70
2023/06/09 08:05:33;;;;;;;10.52;2.95;;;22.10;92.10;;;;;;5074183;28;20024;-70
2023/06/09 08:08:01;;;;;;;5.13;3.40;;;22.10;91.70;;;;;;5074538;28;20031;-70
2023/06/09 08:10:26;;;;;;;3.97;3.08;;;22.20;91.70;;;;;;5074309;28;20384;-69
2023/06/09 08:12:52;;;;;;;3.72;3.17;;;22.20;91.50;;;;;;5074038;28;20031;-69
2023/06/09 08:15:18;;;;;;;6.55;2.95;;;22.30;91.40;;;;;;5073938;28;20028;-70
2023/06/09 08:17:44;;;;;;;6.32;3.58;;;22.40;91.80;;;;;;5074092;28;20512;-69
2023/06/09 08:20:10;;;;;;;7.40;3.35;;;22.40;92.20;;;;;;5073983;28;20059;-69
2023/06/09 08:22:36;;;;;;;5.65;3.33;;;22.40;92.30;;;;;;5073859;28;20036;-68
2023/06/09 08:25:03;;;;;;;8.75;3.33;;;22.50;91.00;;;;;;5073763;28;20017;-69
2023/06/09 08:27:28;;;;;;;3.83;3.17;;;22.50;90.60;;;;;;5073817;28;20052;-69
2023/06/09 08:29:55;;;;;;;4.30;3.28;;;22.60;91.00;;;;;;5073922;28;20052;-69
2023/06/09 08:32:20;;;;;;;8.32;3.25;;;22.70;91.00;;;;;;5073877;28;20029;-68
2023/06/09 08:34:46;;;;;;;5.93;3.60;;;22.70;91.10;;;;;;5073431;28;20048;-68
2023/06/09 08:37:12;;;;;;;11.43;3.20;;;22.80;90.10;;;;;;5073394;28;20434;-70
2023/06/09 08:39:38;;;;;;;13.38;3.55;;;22.90;90.70;;;;;;5072801;28;20534;-70
2023/06/09 08:42:10;;;;;;;5.28;3.17;;;22.90;90.50;;;;;;5073604;28;20078;-70
2023/06/09 08:44:42;;;;;;;6.18;3.47;;;23.10;90.90;;;;;;5073413;28;20017;-68
2023/06/09 08:47:11;;;;;;;5.45;3.45;;;23.10;90.80;;;;;;5073340;28;20487;-69
2023/06/09 08:49:38;;;;;;;6.32;3.10;;;23.20;90.90;;;;;;5073102;28;20048;-69
2023/06/09 08:52:05;;;;;;;7.22;3.45;;;23.30;90.90;;;;;;5073212;28;20021;-69
2023/06/09 08:54:31;;;;;;;8.15;3.40;;;23.30;91.10;;;;;;5073318;28;20111;-69
2023/06/09 08:56:58;;;;;;;4.20;3.40;;;23.30;91.10;;;;;;5073274;28;20021;-71
2023/06/09 08:59:24;;;;;;;8.23;3.40;;;23.40;91.40;;;;;;5073251;28;20503;-67
2023/06/09 09:01:50;;;;;;;6.30;3.22;;;23.50;90.50;;;;;;5073416;28;20146;-68
2023/06/09 09:04:19;;;;;;;4.97;3.40;;;23.50;90.40;;;;;;5073321;28;20066;-67
2023/06/09 09:06:45;;;;;;;8.05;3.58;;;23.70;90.80;;;;;;5073075;28;20567;-67
2023/06/09 09:09:11;;;;;;;5.40;3.67;;;23.70;90.90;;;;;;5072490;28;20021;-68
2023/06/09 09:11:37;;;;;;;6.05;3.63;;;23.70;90.90;;;;;;5073134;28;20025;-68
2023/06/09 09:14:09;;;;;;;9.82;3.80;;;23.80;90.90;;;;;;5073198;28;20070;-67
2023/06/09 09:16:35;;;;;;;5.38;3.50;;;23.90;90.70;;;;;;5072811;28;20032;-67
2023/06/09 09:19:03;;;;;;;6.35;3.47;;;23.90;90.80;;;;;;5072650;28;20033;-66
2023/06/09 09:21:29;;;;;;;8.05;3.38;;;23.90;90.20;;;;;;5072555;28;20029;-67
2023/06/09 09:23:57;;;;;;;4.55;3.38;;;24.00;90.40;;;;;;5072800;28;20024;-67
2023/06/09 09:26:29;;;;;;;6.75;3.58;;;24.00;90.80;;;;;;5072612;28;20028;-66
2023/06/09 09:28:58;;;;;;;5.55;3.67;;;24.00;90.70;;;;;;5072665;28;20422;-67
2023/06/09 09:31:32;;;;;;;6.38;3.78;;;24.10;90.90;;;;;;5072747;28;20569;-67
2023/06/09 09:33:58;;;;;;;8.18;3.90;;;24.20;90.50;;;;;;5072507;28;20103;-67
2023/06/09 09:36:24;;;;;;;6.05;3.40;;;24.20;90.40;;;;;;5072806;28;20498;-66
2023/06/09 09:38:50;;;;;;;6.93;3.33;;;24.30;90.40;;;;;;5072841;28;20040;-67
2023/06/09 09:41:16;;;;;;;9.73;3.60;;;24.40;90.00;;;;;;5072721;28;20489;-66
2023/06/09 09:43:41;;;;;;;8.27;4.15;;;24.50;87.90;;;;;;5072627;28;20028;-67
2023/06/09 09:46:08;;;;;;;4.78;3.35;;;24.50;87.50;;;;;;5072642;28;20021;-66
2023/06/09 09:48:37;;;;;;;3.78;3.38;;;24.50;86.90;;;;;;5072827;28;20472;-67
2023/06/09 09:51:03;;;;;;;4.88;3.60;;;24.70;83.20;;;;;;5072879;28;20024;-67
2023/06/09 09:53:30;;;;;;;4.43;3.83;;;24.70;83.70;;;;;;5072434;28;20033;-67
2023/06/09 09:55:59;;;;;;;6.72;3.53;;;24.80;84.10;;;;;;5072353;28;20423;-67
2023/06/09 09:58:35;;;;;;;6.10;3.70;;;24.90;84.70;;;;;;5072382;28;20364;-66
2023/06/09 10:01:06;;;;;;;6.30;3.63;;;24.90;85.20;;;;;;5072348;28;20488;-66
2023/06/09 10:03:33;;;;;;;3.83;3.40;;;25.00;83.40;;;;;;5072068;28;20099;-66
2023/06/09 10:06:06;;;;;;;5.78;3.10;;;25.10;82.20;;;;;;5071723;28;20029;-66
2023/06/09 10:08:32;;;;;;;5.30;3.20;;;25.10;82.60;;;;;;5070014;28;20964;-67
2023/06/09 10:11:00;;;;;;;4.25;3.28;;;25.20;82.60;;;;;;5071994;28;20461;-67
2023/06/09 10:13:27;;;;;;;4.20;3.33;;;25.20;81.30;;;;;;5069244;28;20020;-68
2023/06/09 10:15:55;;;;;;;8.13;3.35;;;25.30;82.00;;;;;;5071621;28;20100;-66
2023/06/09 10:18:22;;;;;;;5.18;3.50;;;25.40;82.20;;;;;;5071588;28;20120;-66
2023/06/09 10:20:49;;;;;;;4.55;3.33;;;25.40;82.00;;;;;;5074427;28;20032;-66
2023/06/09 10:23:16;;;;;;;3.90;3.58;;;25.50;81.80;;;;;;5075284;28;20048;-66
2023/06/09 10:25:42;;;;;;;4.65;2.80;;;25.50;80.70;;;;;;5075547;28;20020;-66
2023/06/09 10:28:10;;;;;;;5.35;3.10;;;25.70;80.80;;;;;;5075858;28;20032;-66
2023/06/09 10:30:37;;;;;;;5.50;2.80;;;25.70;80.30;;;;;;5075942;28;20075;-66
2023/06/09 10:33:17;;;;;;;3.45;3.13;;;25.70;80.70;;;;;;5075863;28;20016;-67
2023/06/09 10:35:46;;;;;;;5.30;3.08;;;25.80;79.90;;;;;;5075679;28;20511;-67
2023/06/09 10:38:28;;;;;;;9.07;2.92;;;25.90;79.50;;;;;;5076246;28;20499;-67
2023/06/09 10:40:59;;;;;;;3.47;3.03;;;25.90;79.90;;;;;;5075845;28;20024;-67
2023/06/09 10:43:47;;;;;;;3.88;2.83;;;26.00;78.70;;;;;;5075830;28;20051;-67
2023/06/09 10:46:13;;;;;;;5.32;2.95;;;26.10;76.30;;;;;;5075808;28;20060;-67
2023/06/09 10:48:51;;;;;;;4.95;2.75;;;26.10;76.90;;;;;;5075770;28;20035;-67
2023/06/09 10:51:28;;;;;;;4.50;2.45;;;26.20;75.40;;;;;;5075480;28;20032;-67
2023/06/09 10:54:10;;;;;;;4.95;3.00;;;26.20;75.80;;;;;;5075625;28;20024;-66
2023/06/09 10:56:52;;;;;;;3.97;2.88;;;26.20;75.30;;;;;;5075617;28;20093;-67
2023/06/09 10:59:23;;;;;;;;;;;26.20;75.10;;;;;;5076110;28;20121;-68
2023/06/09 11:02:05;;;;;;;4.43;3.63;;;26.20;76.70;;;;;;5075275;28;20011;-66
2023/06/09 11:05:00;;;;;;;4.25;3.40;;;26.20;76.50;;;;;;5075666;28;20031;-67
2023/06/09 11:07:31;;;;;;;4.50;3.05;;;26.20;77.10;;;;;;5075201;28;20086;-66
2023/06/09 11:09:57;;;;;;;4.45;3.25;;;26.30;78.60;;;;;;5075226;28;20028;-68
2023/06/09 11:12:36;;;;;;;5.88;3.03;;;26.30;77.00;;;;;;5075276;28;20032;-66
2023/06/09 11:15:03;;;;;;;5.43;3.03;;;26.40;77.40;;;;;;5072267;28;20082;-67
2023/06/09 11:17:40;;;;;;;3.90;2.75;;;26.50;75.80;;;;;;5072535;28;20072;-67
2023/06/09 11:20:06;;;;;;;5.18;2.88;;;26.50;73.20;;;;;;5075142;28;20029;-67
2023/06/09 11:22:41;;;;;;;4.75;3.55;;;26.40;73.70;;;;;;5075203;28;20103;-67
2023/06/09 11:25:19;;;;;;;4.65;3.25;;;26.40;74.20;;;;;;5075263;28;20029;-67
2023/06/09 11:27:48;;;;;;;5.82;3.60;;;26.50;74.20;;;;;;5075059;28;20090;-67
2023/06/09 11:30:18;;;;;;;5.88;3.10;;;26.60;75.40;;;;;;5073289;28;20384;-67
2023/06/09 11:32:45;;;;;;;4.80;3.38;;;26.70;75.40;;;;;;5075106;28;20439;-69
2023/06/09 11:35:32;;;;;;;5.55;2.85;;;26.70;74.90;;;;;;5074603;28;20443;-68
2023/06/09 11:38:05;;;;;;;5.95;2.90;;;26.70;75.60;;;;;;5073260;28;20127;-67
2023/06/09 11:40:33;;;;;;;4.00;3.00;;;26.80;75.60;;;;;;5071802;28;20111;-68
2023/06/09 11:43:01;;;;;;;4.97;3.13;;;26.80;75.50;;;;;;5071940;28;20098;-67
2023/06/09 11:45:31;;;;;;;6.45;3.08;;;26.90;73.80;;;;;;5073765;28;20115;-67
2023/06/09 11:47:59;;;;;;;4.20;2.95;;;26.90;74.20;;;;;;5074730;28;20033;-67
2023/06/09 11:50:35;;;;;;;3.40;3.03;;;26.90;74.50;;;;;;5074718;28;20070;-67
2023/06/09 11:53:06;;;;;;;5.03;2.80;;;27.00;73.20;;;;;;5074222;28;20030;-67
2023/06/09 11:55:33;;;;;;;3.45;3.03;;;27.00;72.90;;;;;;5074720;28;20365;-67
2023/06/09 11:58:01;;;;;;;5.35;2.88;;;27.10;72.50;;;;;;5074329;28;20483;-67
2023/06/09 12:00:30;;;;;;;5.38;3.50;;;27.00;72.70;;;;;;5074208;28;20016;-67
2023/06/09 12:02:56;;;;;;;3.58;3.08;;;26.90;75.50;;;;;;5074066;28;20412;-67
2023/06/09 12:05:24;;;;;;;3.67;3.05;;;26.90;74.50;;;;;;5074216;28;20028;-67
2023/06/09 12:07:53;;;;;;;4.07;3.33;;;26.80;74.60;;;;;;5074155;28;20480;-67
2023/06/09 12:10:24;;;;;;;5.75;2.92;;;26.80;73.80;;;;;;5074082;28;20012;-67
2023/06/09 12:12:53;;;;;;;3.70;2.40;;;26.70;76.20;;;;;;5074151;28;20017;-66
2023/06/09 12:15:21;;;;;;;2.38;2.17;;;26.70;74.30;;;;;;5071787;28;20028;-67
2023/06/09 12:17:53;;;;;;;2.90;2.30;;;26.60;75.00;;;;;;5070903;28;20048;-66
2023/06/09 12:20:25;;;;;;;4.30;2.60;;;26.60;75.00;;;;;;5070875;28;20078;-67
2023/06/09 12:23:13;;;;;;;3.88;2.90;;;26.50;74.50;;;;;;5073414;28;20594;-67
2023/06/09 12:25:49;;;;;;;5.10;2.30;;;26.50;75.70;;;;;;5073664;28;20477;-66
2023/06/09 12:28:27;;;;;;;4.07;2.67;;;26.50;76.00;;;;;;5073316;28;20032;-67
2023/06/09 12:30:55;;;;;;;2.92;2.50;;;26.50;75.30;;;;;;5072978;28;20020;-66
2023/06/09 12:33:29;;;;;;;3.58;2.35;;;26.60;77.00;;;;;;5073240;28;20031;-66
2023/06/09 12:36:04;;;;;;;3.92;2.40;;;26.60;75.50;;;;;;5073358;28;20053;-66
2023/06/09 12:38:34;;;;;;;7.07;2.83;;;26.50;75.20;;;;;;5073210;28;20488;-67
2023/06/09 12:41:07;;;;;;;6.90;2.72;;;26.50;75.80;;;;;;5073820;28;20021;-67
2023/06/09 12:43:45;;;;;;;6.30;2.90;;;26.40;76.70;;;;;;5072862;28;20103;-67
2023/06/09 12:46:12;;;;;;;5.07;2.80;;;26.40;76.40;;;;;;5073273;28;20052;-66
2023/06/09 12:49:01;;;;;;;2.92;2.60;;;26.40;75.70;;;;;;5073528;28;20029;-66
2023/06/09 12:51:28;;;;;;;5.80;2.95;;;26.40;77.10;;;;;;5073339;28;20128;-66